sensor_id;sensor_type;location;lat;lon;timestamp;temperature;humidity
51839;DHT22;37886;53.174;6.368;2022-08-21T00:01:24;14.30;99.90
51839;DHT22;37886;53.174;6.368;2022-08-21T00:03:51;14.30;99.90
51839;DHT22;37886;53.174;6.368;2022-08-21T00:06:16;14.20;99.90
51839;DHT22;37886;53.174;6.368;2022-08-21T00:08:42;14.20;99.90
51839;DHT22;37886;53.174;6.368;2022-08-21T00:11:08;14.20;99.90
51839;DHT22;37886;53.174;6.368;2022-08-21T00:13:35;14.20;99.90
51839;DHT22;37886;53.174;6.368;2022-08-21T00:16:01;14.20;99.90
51839;DHT22;37886;53.174;6.368;2022-08-21T00:18:28;14.10;99.90
51839;DHT22;37886;53.174;6.368;2022-08-21T00:20:53;14.10;99.90
51839;DHT22;37886;53.174;6.368;2022-08-21T00:23:19;14.10;99.90
51839;DHT22;37886;53.174;6.368;2022-08-21T00:25:45;14.10;99.90
51839;DHT22;37886;53.174;6.368;2022-08-21T00:28:12;14.10;99.90
51839;DHT22;37886;53.174;6.368;2022-08-21T00:30:39;14.10;99.90
51839;DHT22;37886;53.174;6.368;2022-08-21T00:33:06;14.00;99.90
51839;DHT22;37886;53.174;6.368;2022-08-21T00:35:37;14.00;99.90
51839;DHT22;37886;53.174;6.368;2022-08-21T00:38:05;14.00;99.90
51839;DHT22;37886;53.174;6.368;2022-08-21T00:40:35;14.00;99.90
51839;DHT22;37886;53.174;6.368;2022-08-21T00:43:04;13.90;99.90
51839;DHT22;37886;53.174;6.368;2022-08-21T00:45:29;13.90;99.90
51839;DHT22;37886;53.174;6.368;2022-08-21T00:47:56;13.80;99.90
51839;DHT22;37886;53.174;6.368;2022-08-21T00:50:23;13.80;99.90
51839;DHT22;37886;53.174;6.368;2022-08-21T00:52:52;13.80;99.90
51839;DHT22;37886;53.174;6.368;2022-08-21T00:55:18;13.80;99.90
51839;DHT22;37886;53.174;6.368;2022-08-21T00:57:48;13.70;99.90
51839;DHT22;37886;53.174;6.368;2022-08-21T01:00:18;13.70;99.90
51839;DHT22;37886;53.174;6.368;2022-08-21T01:02:44;13.70;99.90
51839;DHT22;37886;53.174;6.368;2022-08-21T01:05:10;13.60;99.90
51839;DHT22;37886;53.174;6.368;2022-08-21T01:07:36;13.60;99.90
51839;DHT22;37886;53.174;6.368;2022-08-21T01:10:05;13.60;99.90
51839;DHT22;37886;53.174;6.368;2022-08-21T01:12:32;13.60;99.90
51839;DHT22;37886;53.174;6.368;2022-08-21T01:14:58;13.50;99.90
51839;DHT22;37886;53.174;6.368;2022-08-21T01:17:24;13.60;99.90
51839;DHT22;37886;53.174;6.368;2022-08-21T01:19:52;13.50;99.90
51839;DHT22;37886;53.174;6.368;2022-08-21T01:22:18;13.50;99.90
51839;DHT22;37886;53.174;6.368;2022-08-21T01:24:45;13.50;99.90
51839;DHT22;37886;53.174;6.368;2022-08-21T01:27:10;13.50;99.90
51839;DHT22;37886;53.174;6.368;2022-08-21T01:29:43;13.50;99.90
51839;DHT22;37886;53.174;6.368;2022-08-21T01:32:13;13.50;99.90
51839;DHT22;37886;53.174;6.368;2022-08-21T01:34:42;13.50;99.90
51839;DHT22;37886;53.174;6.368;2022-08-21T01:37:08;13.50;99.90
51839;DHT22;37886;53.174;6.368;2022-08-21T01:39:35;13.50;99.90
51839;DHT22;37886;53.174;6.368;2022-08-21T01:42:01;13.50;99.90
51839;DHT22;37886;53.174;6.368;2022-08-21T01:44:27;13.50;99.90
51839;DHT22;37886;53.174;6.368;2022-08-21T01:46:54;13.50;99.90
51839;DHT22;37886;53.174;6.368;2022-08-21T01:49:21;13.50;99.90
51839;DHT22;37886;53.174;6.368;2022-08-21T01:51:47;13.50;99.90
51839;DHT22;37886;53.174;6.368;2022-08-21T01:54:12;13.50;99.90
51839;DHT22;37886;53.174;6.368;2022-08-21T01:56:41;13.50;99.90
51839;DHT22;37886;53.174;6.368;2022-08-21T01:59:08;13.50;99.90
51839;DHT22;37886;53.174;6.368;2022-08-21T02:01:35;13.50;99.90
51839;DHT22;37886;53.174;6.368;2022-08-21T02:04:00;13.50;99.90
51839;DHT22;37886;53.174;6.368;2022-08-21T02:06:26;13.50;99.90
51839;DHT22;37886;53.174;6.368;2022-08-21T02:08:52;13.50;99.90
51839;DHT22;37886;53.174;6.368;2022-08-21T02:11:18;13.40;99.90
51839;DHT22;37886;53.174;6.368;2022-08-21T02:13:44;13.40;99.90
51839;DHT22;37886;53.174;6.368;2022-08-21T02:16:10;13.40;99.90
51839;DHT22;37886;53.174;6.368;2022-08-21T02:18:39;13.40;99.90
51839;DHT22;37886;53.174;6.368;2022-08-21T02:21:05;13.40;99.90
51839;DHT22;37886;53.174;6.368;2022-08-21T02:23:34;13.40;99.90
51839;DHT22;37886;53.174;6.368;2022-08-21T02:26:01;13.40;99.90
51839;DHT22;37886;53.174;6.368;2022-08-21T02:28:28;13.40;99.90
51839;DHT22;37886;53.174;6.368;2022-08-21T02:30:54;13.40;99.90
51839;DHT22;37886;53.174;6.368;2022-08-21T02:33:22;13.40;99.90
51839;DHT22;37886;53.174;6.368;2022-08-21T02:35:48;13.40;99.90
51839;DHT22;37886;53.174;6.368;2022-08-21T02:38:18;13.40;99.90
51839;DHT22;37886;53.174;6.368;2022-08-21T02:40:46;13.50;99.90
51839;DHT22;37886;53.174;6.368;2022-08-21T02:43:13;13.50;99.90
51839;DHT22;37886;53.174;6.368;2022-08-21T02:45:39;13.40;99.90
51839;DHT22;37886;53.174;6.368;2022-08-21T02:48:08;13.50;99.90
51839;DHT22;37886;53.174;6.368;2022-08-21T02:50:38;13.50;99.90
51839;DHT22;37886;53.174;6.368;2022-08-21T02:53:06;13.50;99.90
51839;DHT22;37886;53.174;6.368;2022-08-21T02:55:34;13.50;99.90
51839;DHT22;37886;53.174;6.368;2022-08-21T02:58:01;13.50;99.90
51839;DHT22;37886;53.174;6.368;2022-08-21T03:00:30;13.50;99.90
51839;DHT22;37886;53.174;6.368;2022-08-21T03:02:57;13.50;99.90
51839;DHT22;37886;53.174;6.368;2022-08-21T03:05:24;13.50;99.90
51839;DHT22;37886;53.174;6.368;2022-08-21T03:07:51;13.50;99.90
51839;DHT22;37886;53.174;6.368;2022-08-21T03:10:18;13.50;99.90
51839;DHT22;37886;53.174;6.368;2022-08-21T03:12:45;13.60;99.90
51839;DHT22;37886;53.174;6.368;2022-08-21T03:15:14;13.60;99.90
51839;DHT22;37886;53.174;6.368;2022-08-21T03:17:40;13.60;99.90
51839;DHT22;37886;53.174;6.368;2022-08-21T03:20:07;13.60;99.90
51839;DHT22;37886;53.174;6.368;2022-08-21T03:22:33;13.60;99.90
51839;DHT22;37886;53.174;6.368;2022-08-21T03:24:59;13.70;99.90
51839;DHT22;37886;53.174;6.368;2022-08-21T03:27:27;13.60;99.90
51839;DHT22;37886;53.174;6.368;2022-08-21T03:29:54;13.70;99.90
51839;DHT22;37886;53.174;6.368;2022-08-21T03:32:21;13.70;99.90
51839;DHT22;37886;53.174;6.368;2022-08-21T03:34:47;13.70;99.90
51839;DHT22;37886;53.174;6.368;2022-08-21T03:37:13;13.70;99.90
51839;DHT22;37886;53.174;6.368;2022-08-21T03:39:40;13.70;99.90
51839;DHT22;37886;53.174;6.368;2022-08-21T03:42:07;13.70;99.90
51839;DHT22;37886;53.174;6.368;2022-08-21T03:44:34;13.70;99.90
51839;DHT22;37886;53.174;6.368;2022-08-21T03:47:00;13.80;99.90
51839;DHT22;37886;53.174;6.368;2022-08-21T03:49:27;13.80;99.90
51839;DHT22;37886;53.174;6.368;2022-08-21T03:51:53;13.70;99.90
51839;DHT22;37886;53.174;6.368;2022-08-21T03:54:19;13.70;99.90
51839;DHT22;37886;53.174;6.368;2022-08-21T03:56:45;13.70;99.90
51839;DHT22;37886;53.174;6.368;2022-08-21T03:59:14;13.70;99.90
51839;DHT22;37886;53.174;6.368;2022-08-21T04:01:39;13.70;99.90
51839;DHT22;37886;53.174;6.368;2022-08-21T04:04:16;13.70;99.90
51839;DHT22;37886;53.174;6.368;2022-08-21T04:06:41;13.70;99.90
51839;DHT22;37886;53.174;6.368;2022-08-21T04:09:07;13.70;99.90
51839;DHT22;37886;53.174;6.368;2022-08-21T04:11:33;13.60;99.90
51839;DHT22;37886;53.174;6.368;2022-08-21T04:13:59;13.60;99.90
51839;DHT22;37886;53.174;6.368;2022-08-21T04:16:25;13.60;99.90
51839;DHT22;37886;53.174;6.368;2022-08-21T04:18:51;13.60;99.90
51839;DHT22;37886;53.174;6.368;2022-08-21T04:21:16;13.60;99.90
51839;DHT22;37886;53.174;6.368;2022-08-21T04:23:42;13.60;99.90
51839;DHT22;37886;53.174;6.368;2022-08-21T04:26:08;13.60;99.90
51839;DHT22;37886;53.174;6.368;2022-08-21T04:28:33;13.60;99.90
51839;DHT22;37886;53.174;6.368;2022-08-21T04:30:59;13.70;99.90
51839;DHT22;37886;53.174;6.368;2022-08-21T04:33:25;13.70;99.90
51839;DHT22;37886;53.174;6.368;2022-08-21T04:35:51;13.70;99.90
51839;DHT22;37886;53.174;6.368;2022-08-21T04:38:17;13.70;99.90
51839;DHT22;37886;53.174;6.368;2022-08-21T04:40:46;13.80;99.90
51839;DHT22;37886;53.174;6.368;2022-08-21T04:43:16;13.80;99.90
51839;DHT22;37886;53.174;6.368;2022-08-21T04:45:44;13.90;99.90
51839;DHT22;37886;53.174;6.368;2022-08-21T04:48:12;13.90;99.90
51839;DHT22;37886;53.174;6.368;2022-08-21T04:51:09;13.80;99.90
51839;DHT22;37886;53.174;6.368;2022-08-21T04:53:48;13.90;99.90
51839;DHT22;37886;53.174;6.368;2022-08-21T04:56:27;13.90;99.90
51839;DHT22;37886;53.174;6.368;2022-08-21T04:58:55;13.90;99.90
51839;DHT22;37886;53.174;6.368;2022-08-21T05:01:23;14.00;99.90
51839;DHT22;37886;53.174;6.368;2022-08-21T05:03:52;14.00;99.90
51839;DHT22;37886;53.174;6.368;2022-08-21T05:06:20;14.10;99.90
51839;DHT22;37886;53.174;6.368;2022-08-21T05:08:49;14.10;99.90
51839;DHT22;37886;53.174;6.368;2022-08-21T05:11:17;14.10;99.90
51839;DHT22;37886;53.174;6.368;2022-08-21T05:13:43;14.10;99.90
51839;DHT22;37886;53.174;6.368;2022-08-21T05:16:09;14.20;99.90
51839;DHT22;37886;53.174;6.368;2022-08-21T05:18:35;14.20;99.90
51839;DHT22;37886;53.174;6.368;2022-08-21T05:21:00;14.30;99.90
51839;DHT22;37886;53.174;6.368;2022-08-21T05:23:26;14.30;99.90
51839;DHT22;37886;53.174;6.368;2022-08-21T05:25:52;14.40;99.90
51839;DHT22;37886;53.174;6.368;2022-08-21T05:28:19;14.40;99.90
51839;DHT22;37886;53.174;6.368;2022-08-21T05:30:45;14.50;99.90
51839;DHT22;37886;53.174;6.368;2022-08-21T05:33:11;14.60;99.90
51839;DHT22;37886;53.174;6.368;2022-08-21T05:35:38;14.60;99.90
51839;DHT22;37886;53.174;6.368;2022-08-21T05:38:05;14.70;99.90
51839;DHT22;37886;53.174;6.368;2022-08-21T05:40:31;14.70;99.90
51839;DHT22;37886;53.174;6.368;2022-08-21T05:42:58;14.80;99.90
51839;DHT22;37886;53.174;6.368;2022-08-21T05:45:28;14.80;99.90
51839;DHT22;37886;53.174;6.368;2022-08-21T05:47:54;14.90;99.90
51839;DHT22;37886;53.174;6.368;2022-08-21T05:50:20;14.90;99.90
51839;DHT22;37886;53.174;6.368;2022-08-21T05:52:46;15.10;99.90
51839;DHT22;37886;53.174;6.368;2022-08-21T05:55:11;15.10;99.90
51839;DHT22;37886;53.174;6.368;2022-08-21T05:57:37;15.20;99.90
51839;DHT22;37886;53.174;6.368;2022-08-21T06:00:09;15.30;99.90
51839;DHT22;37886;53.174;6.368;2022-08-21T06:02:38;15.30;99.90
51839;DHT22;37886;53.174;6.368;2022-08-21T06:05:04;15.40;99.90
51839;DHT22;37886;53.174;6.368;2022-08-21T06:07:29;15.40;99.90
51839;DHT22;37886;53.174;6.368;2022-08-21T06:09:55;15.50;99.90
51839;DHT22;37886;53.174;6.368;2022-08-21T06:12:21;15.60;99.90
51839;DHT22;37886;53.174;6.368;2022-08-21T06:14:47;15.70;99.90
51839;DHT22;37886;53.174;6.368;2022-08-21T06:17:13;15.70;99.90
51839;DHT22;37886;53.174;6.368;2022-08-21T06:19:41;15.80;99.90
51839;DHT22;37886;53.174;6.368;2022-08-21T06:22:07;15.90;99.90
51839;DHT22;37886;53.174;6.368;2022-08-21T06:24:32;16.00;99.90
51839;DHT22;37886;53.174;6.368;2022-08-21T06:27:03;16.10;99.90
51839;DHT22;37886;53.174;6.368;2022-08-21T06:29:28;16.20;99.90
51839;DHT22;37886;53.174;6.368;2022-08-21T06:31:54;16.30;99.90
51839;DHT22;37886;53.174;6.368;2022-08-21T06:34:20;16.30;99.90
51839;DHT22;37886;53.174;6.368;2022-08-21T06:36:49;16.40;99.90
51839;DHT22;37886;53.174;6.368;2022-08-21T06:39:14;16.50;99.90
51839;DHT22;37886;53.174;6.368;2022-08-21T06:41:40;16.50;99.90
51839;DHT22;37886;53.174;6.368;2022-08-21T06:44:06;16.60;99.90
51839;DHT22;37886;53.174;6.368;2022-08-21T06:46:31;16.70;99.90
51839;DHT22;37886;53.174;6.368;2022-08-21T06:48:58;16.80;99.90
51839;DHT22;37886;53.174;6.368;2022-08-21T06:51:24;16.90;99.90
51839;DHT22;37886;53.174;6.368;2022-08-21T06:53:53;17.00;99.90
51839;DHT22;37886;53.174;6.368;2022-08-21T06:56:19;17.10;99.90
51839;DHT22;37886;53.174;6.368;2022-08-21T06:58:45;17.20;99.90
51839;DHT22;37886;53.174;6.368;2022-08-21T07:01:12;17.30;99.90
51839;DHT22;37886;53.174;6.368;2022-08-21T07:03:40;17.40;99.90
51839;DHT22;37886;53.174;6.368;2022-08-21T07:06:08;17.50;99.90
51839;DHT22;37886;53.174;6.368;2022-08-21T07:08:35;17.60;99.90
51839;DHT22;37886;53.174;6.368;2022-08-21T07:11:04;17.70;99.90
51839;DHT22;37886;53.174;6.368;2022-08-21T07:13:31;17.80;99.90
51839;DHT22;37886;53.174;6.368;2022-08-21T07:15:57;18.00;99.90
51839;DHT22;37886;53.174;6.368;2022-08-21T07:18:22;18.10;99.90
51839;DHT22;37886;53.174;6.368;2022-08-21T07:20:48;18.30;99.90
51839;DHT22;37886;53.174;6.368;2022-08-21T07:23:49;18.50;99.90
51839;DHT22;37886;53.174;6.368;2022-08-21T07:26:17;18.50;99.90
51839;DHT22;37886;53.174;6.368;2022-08-21T07:28:43;18.50;99.90
51839;DHT22;37886;53.174;6.368;2022-08-21T07:31:10;18.60;99.90
51839;DHT22;37886;53.174;6.368;2022-08-21T07:33:39;18.60;99.90
51839;DHT22;37886;53.174;6.368;2022-08-21T07:36:06;18.60;99.90
51839;DHT22;37886;53.174;6.368;2022-08-21T07:38:32;18.70;99.90
51839;DHT22;37886;53.174;6.368;2022-08-21T07:40:59;18.90;99.90
51839;DHT22;37886;53.174;6.368;2022-08-21T07:43:26;18.90;99.90
51839;DHT22;37886;53.174;6.368;2022-08-21T07:45:52;19.00;99.90
51839;DHT22;37886;53.174;6.368;2022-08-21T07:48:20;19.10;99.90
51839;DHT22;37886;53.174;6.368;2022-08-21T07:50:46;19.20;99.90
51839;DHT22;37886;53.174;6.368;2022-08-21T07:53:11;19.30;99.90
51839;DHT22;37886;53.174;6.368;2022-08-21T07:55:38;19.40;99.90
51839;DHT22;37886;53.174;6.368;2022-08-21T07:58:04;19.70;99.90
51839;DHT22;37886;53.174;6.368;2022-08-21T08:00:32;19.80;99.90
51839;DHT22;37886;53.174;6.368;2022-08-21T08:02:58;20.10;99.90
51839;DHT22;37886;53.174;6.368;2022-08-21T08:05:27;20.20;99.90
51839;DHT22;37886;53.174;6.368;2022-08-21T08:07:54;20.10;99.90
51839;DHT22;37886;53.174;6.368;2022-08-21T08:10:21;20.10;99.90
51839;DHT22;37886;53.174;6.368;2022-08-21T08:12:47;20.40;99.90
51839;DHT22;37886;53.174;6.368;2022-08-21T08:15:21;20.40;99.90
51839;DHT22;37886;53.174;6.368;2022-08-21T08:17:47;20.30;99.90
51839;DHT22;37886;53.174;6.368;2022-08-21T08:20:15;20.20;99.90
51839;DHT22;37886;53.174;6.368;2022-08-21T08:22:41;20.40;99.90
51839;DHT22;37886;53.174;6.368;2022-08-21T08:25:09;20.50;99.90
51839;DHT22;37886;53.174;6.368;2022-08-21T08:27:36;20.40;99.90
51839;DHT22;37886;53.174;6.368;2022-08-21T08:30:03;20.50;99.90
51839;DHT22;37886;53.174;6.368;2022-08-21T08:32:29;20.60;99.90
51839;DHT22;37886;53.174;6.368;2022-08-21T08:34:55;20.50;99.90
51839;DHT22;37886;53.174;6.368;2022-08-21T08:37:21;20.50;99.90
51839;DHT22;37886;53.174;6.368;2022-08-21T08:39:47;20.50;99.90
51839;DHT22;37886;53.174;6.368;2022-08-21T08:45:17;20.80;99.90
51839;DHT22;37886;53.174;6.368;2022-08-21T08:47:52;21.10;99.90
51839;DHT22;37886;53.174;6.368;2022-08-21T08:50:40;21.20;99.90
51839;DHT22;37886;53.174;6.368;2022-08-21T08:53:14;21.30;99.90
51839;DHT22;37886;53.174;6.368;2022-08-21T08:55:44;21.30;99.90
51839;DHT22;37886;53.174;6.368;2022-08-21T08:58:18;21.10;99.90
51839;DHT22;37886;53.174;6.368;2022-08-21T09:00:47;21.20;99.90
51839;DHT22;37886;53.174;6.368;2022-08-21T09:03:15;21.30;99.90
51839;DHT22;37886;53.174;6.368;2022-08-21T09:20:12;21.50;99.90
51839;DHT22;37886;53.174;6.368;2022-08-21T09:23:47;22.00;99.90
51839;DHT22;37886;53.174;6.368;2022-08-21T09:28:19;22.60;99.90
51839;DHT22;37886;53.174;6.368;2022-08-21T09:30:45;22.50;99.90
51839;DHT22;37886;53.174;6.368;2022-08-21T09:33:12;22.50;99.90
51839;DHT22;37886;53.174;6.368;2022-08-21T09:35:52;22.90;99.90
51839;DHT22;37886;53.174;6.368;2022-08-21T09:38:34;22.90;99.90
51839;DHT22;37886;53.174;6.368;2022-08-21T09:41:07;23.10;99.90
51839;DHT22;37886;53.174;6.368;2022-08-21T09:43:34;23.20;99.90
51839;DHT22;37886;53.174;6.368;2022-08-21T09:46:10;23.40;99.90
51839;DHT22;37886;53.174;6.368;2022-08-21T09:48:45;23.50;99.90
51839;DHT22;37886;53.174;6.368;2022-08-21T09:51:16;23.20;99.90
51839;DHT22;37886;53.174;6.368;2022-08-21T09:53:45;23.30;99.90
51839;DHT22;37886;53.174;6.368;2022-08-21T09:56:33;23.70;99.90
51839;DHT22;37886;53.174;6.368;2022-08-21T09:59:27;23.70;99.90
51839;DHT22;37886;53.174;6.368;2022-08-21T10:01:57;24.00;99.90
51839;DHT22;37886;53.174;6.368;2022-08-21T10:04:29;24.20;99.90
51839;DHT22;37886;53.174;6.368;2022-08-21T10:07:06;24.20;99.90
51839;DHT22;37886;53.174;6.368;2022-08-21T10:09:32;24.80;99.90
51839;DHT22;37886;53.174;6.368;2022-08-21T10:14:39;24.50;99.90
51839;DHT22;37886;53.174;6.368;2022-08-21T10:20:06;23.70;99.90
51839;DHT22;37886;53.174;6.368;2022-08-21T10:36:23;22.10;99.90
51839;DHT22;37886;53.174;6.368;2022-08-21T10:39:27;21.80;99.90
51839;DHT22;37886;53.174;6.368;2022-08-21T10:45:05;22.00;99.90
51839;DHT22;37886;53.174;6.368;2022-08-21T10:47:54;22.20;99.90
51839;DHT22;37886;53.174;6.368;2022-08-21T10:50:44;22.20;99.90
51839;DHT22;37886;53.174;6.368;2022-08-21T10:56:01;21.90;99.90
51839;DHT22;37886;53.174;6.368;2022-08-21T10:58:45;22.10;99.90
51839;DHT22;37886;53.174;6.368;2022-08-21T11:01:15;22.60;99.90
51839;DHT22;37886;53.174;6.368;2022-08-21T11:03:46;23.20;99.90
51839;DHT22;37886;53.174;6.368;2022-08-21T11:08:41;23.80;99.90
51839;DHT22;37886;53.174;6.368;2022-08-21T11:11:18;24.40;99.90
51839;DHT22;37886;53.174;6.368;2022-08-21T11:16:42;25.30;99.90
51839;DHT22;37886;53.174;6.368;2022-08-21T11:19:17;25.60;99.90
51839;DHT22;37886;53.174;6.368;2022-08-21T11:21:58;25.70;99.90
51839;DHT22;37886;53.174;6.368;2022-08-21T11:24:47;26.00;99.90
51839;DHT22;37886;53.174;6.368;2022-08-21T11:27:33;25.80;99.90
51839;DHT22;37886;53.174;6.368;2022-08-21T11:30:01;24.90;99.90
51839;DHT22;37886;53.174;6.368;2022-08-21T11:35:42;23.80;99.90
51839;DHT22;37886;53.174;6.368;2022-08-21T11:38:42;23.50;99.90
51839;DHT22;37886;53.174;6.368;2022-08-21T11:43:41;23.00;99.90
51839;DHT22;37886;53.174;6.368;2022-08-21T11:56:54;23.10;99.90
51839;DHT22;37886;53.174;6.368;2022-08-21T11:59:43;22.90;99.90
51839;DHT22;37886;53.174;6.368;2022-08-21T12:02:14;22.70;99.90
51839;DHT22;37886;53.174;6.368;2022-08-21T12:04:48;22.70;99.90
51839;DHT22;37886;53.174;6.368;2022-08-21T12:07:27;23.00;99.90
51839;DHT22;37886;53.174;6.368;2022-08-21T12:09:56;23.90;99.90
51839;DHT22;37886;53.174;6.368;2022-08-21T12:12:32;24.80;99.90
51839;DHT22;37886;53.174;6.368;2022-08-21T12:23:34;26.20;99.90
51839;DHT22;37886;53.174;6.368;2022-08-21T12:26:23;26.30;99.90
51839;DHT22;37886;53.174;6.368;2022-08-21T12:28:50;26.30;99.40
51839;DHT22;37886;53.174;6.368;2022-08-21T12:31:24;25.90;99.90
51839;DHT22;37886;53.174;6.368;2022-08-21T12:33:54;25.60;99.90
51839;DHT22;37886;53.174;6.368;2022-08-21T12:36:24;26.30;99.90
51839;DHT22;37886;53.174;6.368;2022-08-21T12:39:03;25.90;99.70
51839;DHT22;37886;53.174;6.368;2022-08-21T12:41:54;25.50;99.50
51839;DHT22;37886;53.174;6.368;2022-08-21T12:44:26;25.00;99.90
51839;DHT22;37886;53.174;6.368;2022-08-21T12:47:02;24.80;99.90
51839;DHT22;37886;53.174;6.368;2022-08-21T12:50:05;24.50;99.90
51839;DHT22;37886;53.174;6.368;2022-08-21T12:52:34;24.40;99.90
51839;DHT22;37886;53.174;6.368;2022-08-21T12:55:01;24.20;99.90
51839;DHT22;37886;53.174;6.368;2022-08-21T12:57:29;24.00;99.90
51839;DHT22;37886;53.174;6.368;2022-08-21T13:00:01;24.00;99.90
51839;DHT22;37886;53.174;6.368;2022-08-21T13:02:37;24.00;99.90
51839;DHT22;37886;53.174;6.368;2022-08-21T13:05:07;24.00;99.90
51839;DHT22;37886;53.174;6.368;2022-08-21T13:07:37;24.00;99.90
51839;DHT22;37886;53.174;6.368;2022-08-21T13:10:12;23.80;99.90
51839;DHT22;37886;53.174;6.368;2022-08-21T13:12:41;23.80;99.90
51839;DHT22;37886;53.174;6.368;2022-08-21T13:15:08;23.90;99.90
51839;DHT22;37886;53.174;6.368;2022-08-21T13:17:41;23.90;99.90
51839;DHT22;37886;53.174;6.368;2022-08-21T13:20:10;23.80;99.90
51839;DHT22;37886;53.174;6.368;2022-08-21T13:22:46;23.90;99.90
51839;DHT22;37886;53.174;6.368;2022-08-21T13:25:14;23.90;99.90
51839;DHT22;37886;53.174;6.368;2022-08-21T13:27:42;23.90;99.90
51839;DHT22;37886;53.174;6.368;2022-08-21T13:30:12;24.00;99.90
51839;DHT22;37886;53.174;6.368;2022-08-21T13:32:48;24.00;99.90
51839;DHT22;37886;53.174;6.368;2022-08-21T13:35:19;25.30;99.90
51839;DHT22;37886;53.174;6.368;2022-08-21T13:37:47;26.20;99.40
51839;DHT22;37886;53.174;6.368;2022-08-21T13:40:21;26.40;99.40
51839;DHT22;37886;53.174;6.368;2022-08-21T13:42:49;26.70;99.10
51839;DHT22;37886;53.174;6.368;2022-08-21T13:45:26;26.70;98.90
51839;DHT22;37886;53.174;6.368;2022-08-21T13:47:53;26.90;98.40
51839;DHT22;37886;53.174;6.368;2022-08-21T13:50:21;26.80;98.60
51839;DHT22;37886;53.174;6.368;2022-08-21T13:53:01;27.10;98.60
51839;DHT22;37886;53.174;6.368;2022-08-21T13:55:43;26.90;98.70
51839;DHT22;37886;53.174;6.368;2022-08-21T13:58:11;26.50;98.00
51839;DHT22;37886;53.174;6.368;2022-08-21T14:00:51;26.00;98.70
51839;DHT22;37886;53.174;6.368;2022-08-21T14:03:43;25.80;97.70
51839;DHT22;37886;53.174;6.368;2022-08-21T14:06:19;25.30;98.60
51839;DHT22;37886;53.174;6.368;2022-08-21T14:09:00;25.00;99.60
51839;DHT22;37886;53.174;6.368;2022-08-21T14:11:31;25.00;98.60
51839;DHT22;37886;53.174;6.368;2022-08-21T14:14:02;26.00;98.00
51839;DHT22;37886;53.174;6.368;2022-08-21T14:16:44;26.90;96.60
51839;DHT22;37886;53.174;6.368;2022-08-21T14:19:19;27.50;96.40
51839;DHT22;37886;53.174;6.368;2022-08-21T14:21:46;27.40;95.40
51839;DHT22;37886;53.174;6.368;2022-08-21T14:26:48;27.80;95.60
51839;DHT22;37886;53.174;6.368;2022-08-21T14:29:16;27.60;95.60
51839;DHT22;37886;53.174;6.368;2022-08-21T14:31:48;26.20;96.30
51839;DHT22;37886;53.174;6.368;2022-08-21T14:34:15;25.60;97.20
51839;DHT22;37886;53.174;6.368;2022-08-21T14:36:42;25.90;97.00
51839;DHT22;37886;53.174;6.368;2022-08-21T14:39:09;26.50;96.40
51839;DHT22;37886;53.174;6.368;2022-08-21T14:41:35;27.00;96.10
51839;DHT22;37886;53.174;6.368;2022-08-21T14:44:02;27.50;96.50
51839;DHT22;37886;53.174;6.368;2022-08-21T14:46:30;27.70;95.40
51839;DHT22;37886;53.174;6.368;2022-08-21T14:48:57;27.60;95.10
51839;DHT22;37886;53.174;6.368;2022-08-21T14:51:23;27.50;95.30
51839;DHT22;37886;53.174;6.368;2022-08-21T14:53:49;27.40;95.20
51839;DHT22;37886;53.174;6.368;2022-08-21T14:56:15;27.50;95.20
51839;DHT22;37886;53.174;6.368;2022-08-21T14:58:44;27.30;95.10
51839;DHT22;37886;53.174;6.368;2022-08-21T15:01:12;27.10;95.30
51839;DHT22;37886;53.174;6.368;2022-08-21T15:03:39;26.60;95.80
51839;DHT22;37886;53.174;6.368;2022-08-21T15:06:06;26.70;96.00
51839;DHT22;37886;53.174;6.368;2022-08-21T15:08:32;27.30;95.50
51839;DHT22;37886;53.174;6.368;2022-08-21T15:11:00;27.40;94.90
51839;DHT22;37886;53.174;6.368;2022-08-21T15:13:27;27.30;94.50
51839;DHT22;37886;53.174;6.368;2022-08-21T15:15:53;27.00;94.80
51839;DHT22;37886;53.174;6.368;2022-08-21T15:18:26;27.00;94.50
51839;DHT22;37886;53.174;6.368;2022-08-21T15:20:52;27.00;94.90
51839;DHT22;37886;53.174;6.368;2022-08-21T15:23:18;26.90;94.80
51839;DHT22;37886;53.174;6.368;2022-08-21T15:25:47;26.80;95.10
51839;DHT22;37886;53.174;6.368;2022-08-21T15:28:14;27.30;94.90
51839;DHT22;37886;53.174;6.368;2022-08-21T15:30:42;27.20;95.10
51839;DHT22;37886;53.174;6.368;2022-08-21T15:33:08;27.00;95.10
51839;DHT22;37886;53.174;6.368;2022-08-21T15:35:35;26.70;95.40
51839;DHT22;37886;53.174;6.368;2022-08-21T15:38:01;26.20;95.80
51839;DHT22;37886;53.174;6.368;2022-08-21T15:40:27;26.00;96.50
51839;DHT22;37886;53.174;6.368;2022-08-21T15:42:57;25.80;96.60
51839;DHT22;37886;53.174;6.368;2022-08-21T15:45:23;25.50;96.70
51839;DHT22;37886;53.174;6.368;2022-08-21T15:47:50;25.50;96.90
51839;DHT22;37886;53.174;6.368;2022-08-21T15:50:16;25.70;97.10
51839;DHT22;37886;53.174;6.368;2022-08-21T15:52:43;25.60;97.20
51839;DHT22;37886;53.174;6.368;2022-08-21T15:55:10;25.70;97.20
51839;DHT22;37886;53.174;6.368;2022-08-21T15:57:37;25.80;97.20
51839;DHT22;37886;53.174;6.368;2022-08-21T16:00:15;25.70;97.50
51839;DHT22;37886;53.174;6.368;2022-08-21T16:02:46;25.60;97.60
51839;DHT22;37886;53.174;6.368;2022-08-21T16:05:14;25.50;97.80
51839;DHT22;37886;53.174;6.368;2022-08-21T16:07:42;25.00;98.10
51839;DHT22;37886;53.174;6.368;2022-08-21T16:10:09;25.00;98.30
51839;DHT22;37886;53.174;6.368;2022-08-21T16:12:40;24.70;98.30
51839;DHT22;37886;53.174;6.368;2022-08-21T16:15:09;24.40;98.80
51839;DHT22;37886;53.174;6.368;2022-08-21T16:17:37;24.40;98.70
51839;DHT22;37886;53.174;6.368;2022-08-21T16:20:08;24.30;99.00
51839;DHT22;37886;53.174;6.368;2022-08-21T16:22:34;24.30;99.10
51839;DHT22;37886;53.174;6.368;2022-08-21T16:25:00;24.20;99.20
51839;DHT22;37886;53.174;6.368;2022-08-21T16:27:26;24.10;99.10
51839;DHT22;37886;53.174;6.368;2022-08-21T16:29:51;24.10;99.00
51839;DHT22;37886;53.174;6.368;2022-08-21T16:32:17;24.00;99.50
51839;DHT22;37886;53.174;6.368;2022-08-21T16:34:47;24.10;99.50
51839;DHT22;37886;53.174;6.368;2022-08-21T16:37:15;23.80;99.50
51839;DHT22;37886;53.174;6.368;2022-08-21T16:39:41;23.60;99.80
51839;DHT22;37886;53.174;6.368;2022-08-21T16:42:13;23.50;99.80
51839;DHT22;37886;53.174;6.368;2022-08-21T16:44:41;23.50;99.70
51839;DHT22;37886;53.174;6.368;2022-08-21T16:47:07;23.40;99.90
51839;DHT22;37886;53.174;6.368;2022-08-21T16:49:33;23.30;99.90
51839;DHT22;37886;53.174;6.368;2022-08-21T16:51:58;23.20;99.90
51839;DHT22;37886;53.174;6.368;2022-08-21T16:54:25;23.20;99.90
51839;DHT22;37886;53.174;6.368;2022-08-21T16:56:51;23.30;99.90
51839;DHT22;37886;53.174;6.368;2022-08-21T16:59:17;23.20;99.90
51839;DHT22;37886;53.174;6.368;2022-08-21T17:01:43;23.00;99.90